Time;durP1;ratioP1;P1;durP2;ratioP2;P2;SDS_P1;SDS_P2;PMS_P1;PMS_P2;Temp;Humidity;BMP_temperature;BMP_pressure;BME280_temperature;BME280_humidity;BME280_pressure;Samples;Min_cycle;Max_cycle;Signal;HPM_P1;HPM_P2
2022/09/03 00:02:19;;;;;;;11.80;2.42;;;;;;;19.35;37.88;100714.47;5111047;27;20351;-53
2022/09/03 00:04:59;;;;;;;9.02;2.40;;;;;;;19.47;38.05;100711.13;5110952;28;20051;-55
2022/09/03 00:07:37;;;;;;;6.07;2.40;;;;;;;19.46;37.91;100714.84;5090774;28;20429;-53
2022/09/03 00:10:11;;;;;;;7.00;2.45;;;;;;;19.40;37.84;100713.00;5090603;28;20040;-57
2022/09/03 00:12:43;;;;;;;6.32;2.40;;;;;;;19.36;37.86;100707.22;5090933;28;20040;-56
2022/09/03 00:15:13;;;;;;;;;;;;;;;19.40;37.94;100705.75;5090988;28;20463;-55
2022/09/03 00:17:52;;;;;;;9.55;2.40;;;;;;;19.31;38.47;100709.72;5089559;28;20393;-53
2022/09/03 00:20:27;;;;;;;5.78;2.30;;;;;;;19.26;38.33;100699.59;5090649;28;20036;-52
2022/09/03 00:22:57;;;;;;;5.97;2.30;;;;;;;19.28;38.39;100705.63;5052543;28;20960;-58
2022/09/03 00:25:34;;;;;;;10.57;2.53;;;;;;;19.26;38.50;100704.16;5090584;28;20040;-55
2022/09/03 00:28:08;;;;;;;6.07;2.45;;;;;;;19.15;38.69;100698.38;5090512;28;20093;-56
2022/09/03 00:30:35;;;;;;;7.88;2.40;;;;;;;19.11;38.77;100699.03;5088653;28;20481;-60
2022/09/03 00:33:09;;;;;;;9.50;2.53;;;;;;;19.13;38.72;100696.97;5090364;28;20435;-55
2022/09/03 00:36:03;;;;;;;10.00;2.50;;;;;;;19.12;39.26;100698.00;5090390;28;20123;-54
2022/09/03 00:38:30;;;;;;;7.82;2.30;;;;;;;19.05;38.84;100703.41;5090375;28;20109;-55
2022/09/03 00:41:24;;;;;;;7.88;2.30;;;;;;;19.07;39.08;100698.63;5090183;28;20430;-55
2022/09/03 00:44:25;;;;;;;7.90;2.80;;;;;;;19.11;39.72;100707.09;5089831;28;20044;-56
2022/09/03 00:47:17;;;;;;;8.48;2.55;;;;;;;19.06;39.62;100707.72;5089900;28;20460;-55
2022/09/03 00:50:12;;;;;;;7.45;2.72;;;;;;;19.10;39.55;100703.59;5089819;28;20044;-55
2022/09/03 00:52:51;;;;;;;5.63;2.30;;;;;;;18.94;39.16;100696.81;5089796;28;20123;-54
2022/09/03 00:55:47;;;;;;;8.68;2.50;;;;;;;18.99;40.04;100705.06;5090168;28;20056;-55
2022/09/03 01:01:16;;;;;;;7.95;2.33;;;;;;;18.85;39.71;100700.75;5110692;27;20380;-53
2022/09/03 01:04:11;;;;;;;13.48;2.67;;;;;;;18.91;39.97;100699.09;5111288;28;20075;-54
2022/09/03 01:06:53;;;;;;;16.20;2.80;;;;;;;18.83;39.57;100694.78;5111302;28;20104;-54
2022/09/03 01:09:47;;;;;;;8.02;2.33;;;;;;;18.85;39.90;100700.75;5111198;28;20051;-54
2022/09/03 01:12:32;;;;;;;8.35;2.30;;;;;;;18.83;40.65;100696.59;5110994;28;20071;-54
2022/09/03 01:15:07;;;;;;;7.53;2.60;;;;;;;18.71;40.15;100696.41;5111086;28;20067;-54
2022/09/03 01:20:33;;;;;;;5.40;2.30;;;;;;;18.69;40.52;100695.78;5110975;27;20347;-54
2022/09/03 01:23:34;;;;;;;5.60;2.33;;;;;;;18.65;40.28;100694.56;5071919;28;20048;-53
2022/09/03 01:26:28;;;;;;;7.30;2.40;;;;;;;18.60;40.80;100696.00;5110282;28;20101;-54
2022/09/03 01:32:02;;;;;;;6.28;2.40;;;;;;;18.64;40.75;100695.59;5110683;27;20351;-53
2022/09/03 01:34:55;;;;;;;8.02;2.30;;;;;;;18.59;41.17;100688.97;5110329;28;20050;-54
2022/09/03 01:37:52;;;;;;;7.57;2.47;;;;;;;18.55;40.82;100686.91;5109651;28;20077;-54
2022/09/03 01:40:34;;;;;;;7.55;2.42;;;;;;;18.55;40.99;100681.53;5110647;28;20493;-54
2022/09/03 01:43:19;;;;;;;7.95;2.40;;;;;;;18.54;40.70;100682.59;5105431;28;20414;-53
2022/09/03 01:48:35;;;;;;;9.18;2.20;;;;;;;18.51;40.85;100686.50;5110328;27;20350;-54
2022/09/03 01:51:18;;;;;;;7.40;2.25;;;;;;;18.57;41.05;100690.22;5111239;28;20039;-53
2022/09/03 01:54:13;;;;;;;6.47;2.60;;;;;;;18.51;40.96;100691.88;5111278;28;20043;-56
2022/09/03 01:57:14;;;;;;;5.97;2.20;;;;;;;18.45;41.36;100689.22;5110744;28;20044;-54
2022/09/03 01:59:50;;;;;;;8.60;2.17;;;;;;;18.46;40.88;100688.16;5110984;28;20048;-53
2022/09/03 02:02:22;;;;;;;6.10;2.28;;;;;;;18.42;41.42;100688.56;5111125;28;20051;-53
2022/09/03 02:05:08;;;;;;;6.38;2.17;;;;;;;18.43;41.79;100694.78;5110493;28;20043;-53
2022/09/03 02:07:39;;;;;;;7.32;2.47;;;;;;;18.40;41.76;100695.19;5090514;28;20094;-54
2022/09/03 02:10:11;;;;;;;5.78;2.22;;;;;;;18.33;41.99;100700.53;5090592;28;20098;-54
2022/09/03 02:12:42;;;;;;;5.00;2.15;;;;;;;18.30;41.88;100697.44;5090558;28;20045;-54
2022/09/03 02:15:15;;;;;;;6.68;2.40;;;;;;;18.25;41.73;100695.41;5090543;28;20044;-54
2022/09/03 02:17:44;;;;;;;7.50;2.20;;;;;;;18.18;41.72;100692.69;5090438;28;20446;-53
2022/09/03 02:20:19;;;;;;;8.15;2.30;;;;;;;18.14;41.87;100694.16;5090381;28;20052;-53
2022/09/03 02:22:47;;;;;;;6.15;2.03;;;;;;;18.21;42.45;100697.66;5052088;28;20052;-53
2022/09/03 02:25:15;;;;;;;5.82;1.90;;;;;;;18.26;41.94;100693.53;5090328;28;20075;-53
2022/09/03 02:27:44;;;;;;;6.40;2.33;;;;;;;18.21;41.52;100694.97;5090267;28;20040;-53
2022/09/03 02:30:11;;;;;;;5.75;1.95;;;;;;;18.22;42.09;100687.75;5089621;28;20051;-52
2022/09/03 02:32:38;;;;;;;5.25;2.10;;;;;;;18.19;42.41;100689.00;5090051;28;20070;-53
2022/09/03 02:35:09;;;;;;;4.72;1.95;;;;;;;18.15;42.29;100689.59;5090271;28;20090;-53
2022/09/03 02:37:35;;;;;;;11.63;2.20;;;;;;;18.11;42.25;100691.84;5089913;28;20040;-53
2022/09/03 02:40:07;;;;;;;5.97;2.20;;;;;;;18.16;42.27;100689.41;5090266;28;20889;-53
2022/09/03 02:42:35;;;;;;;5.70;2.22;;;;;;;18.21;42.02;100686.94;5089700;28;20501;-53
2022/09/03 02:45:16;;;;;;;8.18;2.13;;;;;;;18.22;42.40;100688.56;5089968;28;20087;-53
2022/09/03 02:47:44;;;;;;;7.45;2.15;;;;;;;18.20;41.79;100693.31;5089464;28;20075;-53
2022/09/03 02:50:11;;;;;;;5.15;2.00;;;;;;;18.11;42.86;100691.84;5089827;28;20040;-53
2022/09/03 02:52:38;;;;;;;6.55;2.20;;;;;;;18.05;41.92;100681.13;5089772;28;20051;-53
2022/09/03 02:55:04;;;;;;;9.38;2.10;;;;;;;18.06;42.55;100680.91;5089876;28;20051;-54
2022/09/03 02:57:31;;;;;;;10.57;2.28;;;;;;;18.10;42.38;100689.38;5089356;28;20052;-53
2022/09/03 02:59:58;;;;;;;8.30;2.28;;;;;;;17.97;42.82;100687.50;5075291;28;20044;-54
2022/09/03 03:02:24;;;;;;;9.60;2.33;;;;;;;18.01;42.76;100678.84;5075972;28;20032;-56
2022/09/03 03:04:52;;;;;;;7.43;2.30;;;;;;;18.02;43.03;100682.34;5075415;28;20048;-54
2022/09/03 03:07:19;;;;;;;6.40;2.20;;;;;;;18.00;43.13;100679.88;5094488;28;20528;-53
2022/09/03 03:09:46;;;;;;;7.15;2.22;;;;;;;18.06;42.58;100672.84;5096105;28;20044;-56
2022/09/03 03:12:12;;;;;;;5.25;2.10;;;;;;;18.07;43.02;100687.94;5096081;28;20119;-56
2022/09/03 03:14:39;;;;;;;14.10;2.45;;;;;;;17.99;43.34;100678.22;5095931;28;20505;-53
2022/09/03 03:17:06;;;;;;;7.78;2.35;;;;;;;18.01;42.89;100678.03;5095037;28;20078;-55
2022/09/03 03:19:33;;;;;;;7.47;2.30;;;;;;;17.98;43.14;100683.81;5095955;28;20040;-55
2022/09/03 03:21:59;;;;;;;9.82;2.15;;;;;;;17.97;42.78;100680.31;5096193;28;20564;-55
2022/09/03 03:24:26;;;;;;;6.20;2.25;;;;;;;18.03;43.04;100671.41;5057630;28;20072;-55
2022/09/03 03:26:56;;;;;;;5.22;2.15;;;;;;;17.97;43.30;100666.88;5095827;28;20054;-55
2022/09/03 03:29:24;;;;;;;7.18;2.20;;;;;;;17.88;42.97;100664.56;5096001;28;20165;-56
2022/09/03 03:31:51;;;;;;;7.90;2.22;;;;;;;17.91;43.30;100669.53;5094760;28;20070;-55
2022/09/03 03:34:17;;;;;;;4.03;1.92;;;;;;;17.89;43.22;100667.06;5095579;28;20040;-55
2022/09/03 03:36:44;;;;;;;7.72;2.33;;;;;;;17.76;43.34;100667.84;5095646;28;20054;-55
2022/09/03 03:39:10;;;;;;;7.53;2.47;;;;;;;17.78;43.92;100665.78;5095760;28;20048;-55
2022/09/03 03:41:37;;;;;;;6.45;2.13;;;;;;;17.80;44.20;100665.56;5095583;28;20044;-53
2022/09/03 03:44:06;;;;;;;7.60;3.15;;;;;;;17.78;43.76;100668.44;5088537;28;20041;-54
2022/09/03 03:46:37;;;;;;;8.40;2.40;;;;;;;17.79;43.55;100670.13;5074940;28;20118;-53
2022/09/03 03:49:05;;;;;;;11.35;2.50;;;;;;;17.79;43.75;100671.94;5074976;28;20073;-54
2022/09/03 03:51:34;;;;;;;7.72;2.42;;;;;;;17.73;44.59;100657.50;5075201;28;20040;-53
2022/09/03 03:54:01;;;;;;;7.18;2.03;;;;;;;17.78;44.11;100660.41;5074101;28;20055;-53
2022/09/03 03:56:30;;;;;;;6.82;2.25;;;;;;;17.76;43.58;100658.97;5074756;28;20052;-53
2022/09/03 03:58:58;;;;;;;6.30;1.90;;;;;;;17.67;44.16;100665.56;5074831;28;20037;-53
2022/09/03 04:01:26;;;;;;;7.80;2.20;;;;;;;17.71;44.21;100662.25;5075033;28;20089;-53
2022/09/03 04:03:56;;;;;;;7.00;2.30;;;;;;;17.68;44.20;100659.97;5074448;28;20037;-54
2022/09/03 04:06:23;;;;;;;7.88;2.25;;;;;;;17.73;43.99;100662.03;5086732;28;20040;-53
2022/09/03 04:08:50;;;;;;;9.07;2.10;;;;;;;17.70;44.38;100660.59;5094881;28;20094;-53
2022/09/03 04:11:19;;;;;;;6.93;2.13;;;;;;;17.70;44.45;100654.41;5094224;28;20050;-53
2022/09/03 04:13:47;;;;;;;6.38;2.05;;;;;;;17.70;43.95;100663.28;5094759;28;20036;-54
2022/09/03 04:16:20;;;;;;;7.18;2.30;;;;;;;17.71;44.38;100661.44;5094912;28;20493;-54
2022/09/03 04:18:48;;;;;;;7.93;2.20;;;;;;;17.69;44.18;100658.13;5094546;28;20402;-53
2022/09/03 04:21:19;;;;;;;9.55;2.50;;;;;;;17.64;44.49;100651.53;5095034;28;20048;-54
2022/09/03 04:23:47;;;;;;;6.05;2.03;;;;;;;17.57;44.28;100656.03;5056870;28;20036;-52
2022/09/03 04:26:17;;;;;;;4.68;2.08;;;;;;;17.61;44.67;100651.91;5094722;28;20067;-54
2022/09/03 04:28:44;;;;;;;8.77;2.50;;;;;;;17.58;44.86;100654.19;5093459;28;20044;-53
2022/09/03 04:31:13;;;;;;;7.18;2.30;;;;;;;17.59;44.37;100645.94;5094379;28;20066;-53
2022/09/03 04:33:41;;;;;;;5.85;2.20;;;;;;;17.71;44.60;100646.16;5093888;28;20440;-53
2022/09/03 04:36:11;;;;;;;7.25;2.28;;;;;;;17.74;44.28;100644.94;5094379;28;20074;-53
2022/09/03 04:38:40;;;;;;;8.35;2.40;;;;;;;17.75;44.12;100649.25;5094438;28;20043;-53
2022/09/03 04:41:10;;;;;;;8.05;2.30;;;;;;;17.67;44.42;100652.13;5094348;28;20379;-53
2022/09/03 04:43:37;;;;;;;5.63;2.25;;;;;;;17.63;44.23;100647.16;5094033;28;20417;-53
2022/09/03 04:46:06;;;;;;;5.43;2.28;;;;;;;17.62;44.32;100660.78;5094214;28;20040;-52
2022/09/03 04:48:35;;;;;;;6.57;2.33;;;;;;;17.61;44.80;100654.59;5094247;28;20371;-53
2022/09/03 04:51:07;;;;;;;5.43;2.13;;;;;;;17.61;44.85;100662.66;5093981;28;20044;-53
2022/09/03 04:53:36;;;;;;;6.50;2.20;;;;;;;17.60;44.97;100657.47;5094396;28;20447;-53
2022/09/03 04:56:11;;;;;;;6.47;2.20;;;;;;;17.60;44.98;100663.66;5076417;28;20101;-54
2022/09/03 04:58:39;;;;;;;10.63;2.10;;;;;;;17.54;45.30;100667.16;5094241;28;20036;-53
2022/09/03 05:01:09;;;;;;;6.10;2.63;;;;;;;17.57;44.79;100671.28;5094043;28;20083;-54
2022/09/03 05:03:36;;;;;;;6.03;2.10;;;;;;;17.63;44.59;100670.50;5093791;28;20413;-53
2022/09/03 05:06:04;;;;;;;9.38;2.53;;;;;;;17.62;44.60;100668.81;5092358;28;20405;-54
2022/09/03 05:08:31;;;;;;;9.02;2.00;;;;;;;17.62;44.79;100666.16;5094103;28;20044;-53
2022/09/03 05:10:59;;;;;;;5.80;2.25;;;;;;;17.70;44.52;100663.28;5093950;28;20069;-54
2022/09/03 05:13:27;;;;;;;6.70;2.25;;;;;;;17.69;44.31;100660.81;5094088;28;20104;-53
2022/09/03 05:16:03;;;;;;;7.00;2.20;;;;;;;17.65;44.72;100660.38;5093886;28;20546;-54
2022/09/03 05:18:31;;;;;;;5.78;2.10;;;;;;;17.55;44.56;100663.44;5093783;28;20382;-53
2022/09/03 05:21:00;;;;;;;7.18;2.00;;;;;;;17.58;44.78;100660.34;5093299;28;20052;-54
2022/09/03 05:23:28;;;;;;;7.55;2.30;;;;;;;17.50;44.96;100662.38;5054794;28;20044;-54
2022/09/03 05:25:59;;;;;;;5.30;2.20;;;;;;;17.53;45.60;100664.69;5093477;28;20460;-54
2022/09/03 05:28:28;;;;;;;6.45;2.13;;;;;;;17.57;45.21;100664.09;5093812;28;20090;-55
2022/09/03 05:33:41;;;;;;;6.53;2.22;;;;;;;17.63;45.04;100662.44;5111272;27;20379;-56
2022/09/03 05:36:11;;;;;;;9.95;2.25;;;;;;;17.59;45.19;100663.84;5111261;28;20063;-55
2022/09/03 05:38:38;;;;;;;9.07;2.40;;;;;;;17.62;45.13;100661.59;5111223;28;20048;-54
2022/09/03 05:41:07;;;;;;;8.45;2.20;;;;;;;17.58;45.48;100657.69;5110875;28;20043;-54
2022/09/03 05:43:34;;;;;;;6.35;2.33;;;;;;;17.52;45.78;100663.84;5110991;28;20047;-55
2022/09/03 05:46:04;;;;;;;5.53;2.00;;;;;;;17.60;45.54;100660.16;5095447;28;20056;-55
2022/09/03 05:48:33;;;;;;;7.03;2.50;;;;;;;17.59;45.43;100656.66;5090421;28;20046;-54
2022/09/03 05:51:02;;;;;;;8.25;2.50;;;;;;;17.62;45.50;100661.59;5089675;28;20055;-54
2022/09/03 05:53:31;;;;;;;7.43;2.30;;;;;;;17.69;45.58;100661.63;5106269;28;20060;-55
2022/09/03 05:56:02;;;;;;;6.78;2.30;;;;;;;17.72;45.42;100668.44;5090446;28;20044;-54
2022/09/03 05:58:31;;;;;;;6.20;2.28;;;;;;;17.67;45.95;100666.38;5089078;28;20446;-54
2022/09/03 06:00:58;;;;;;;8.82;2.42;;;;;;;17.71;44.96;100669.47;5089156;28;20398;-54
2022/09/03 06:03:25;;;;;;;7.80;2.33;;;;;;;17.62;45.67;100666.16;5089940;28;20417;-54
2022/09/03 06:05:53;;;;;;;7.80;2.38;;;;;;;17.67;45.31;100673.59;5097995;28;20097;-56
2022/09/03 06:08:20;;;;;;;6.20;2.30;;;;;;;17.69;45.84;100675.03;5110637;28;20067;-55
2022/09/03 06:10:47;;;;;;;7.60;2.33;;;;;;;17.75;45.82;100673.41;5110504;28;20036;-55
2022/09/03 06:13:14;;;;;;;5.88;2.13;;;;;;;17.76;45.60;100673.19;5109287;28;20032;-53
2022/09/03 06:15:41;;;;;;;6.78;2.33;;;;;;;17.74;45.79;100674.44;5110791;28;20063;-52
2022/09/03 06:18:08;;;;;;;13.38;2.50;;;;;;;17.76;45.60;100675.88;5110245;28;20098;-55
2022/09/03 06:20:35;;;;;;;9.73;2.50;;;;;;;17.81;45.33;100673.41;5110526;28;20044;-55
2022/09/03 06:23:03;;;;;;;6.68;2.30;;;;;;;17.89;45.28;100668.94;5070993;28;20047;-55
2022/09/03 06:25:30;;;;;;;8.82;2.65;;;;;;;17.90;45.74;100674.09;5109242;28;20072;-56
2022/09/03 06:27:57;;;;;;;8.15;2.45;;;;;;;17.99;46.03;100672.00;5110117;28;20090;-53
2022/09/03 06:30:25;;;;;;;8.65;2.30;;;;;;;17.99;45.89;100669.34;5109317;28;20062;-55
2022/09/03 06:32:52;;;;;;;6.47;2.15;;;;;;;18.02;45.67;100674.31;5109912;28;20048;-55
2022/09/03 06:35:19;;;;;;;8.85;2.38;;;;;;;17.93;45.89;100680.91;5110060;28;20036;-55
2022/09/03 06:37:46;;;;;;;8.70;2.65;;;;;;;18.08;45.69;100669.97;5109968;28;20048;-53
2022/09/03 06:40:13;;;;;;;6.47;2.20;;;;;;;18.18;45.70;100675.78;5109704;28;20040;-54
2022/09/03 06:42:40;;;;;;;6.15;2.10;;;;;;;18.21;44.95;100676.19;5109886;28;20043;-54
2022/09/03 06:45:08;;;;;;;6.85;2.28;;;;;;;18.22;45.01;100671.63;5095757;28;20051;-54
2022/09/03 06:47:35;;;;;;;8.90;2.40;;;;;;;18.26;45.42;100670.19;5096274;28;20040;-54
2022/09/03 06:50:02;;;;;;;7.20;2.90;;;;;;;18.34;45.34;100666.47;5096132;28;20048;-54
2022/09/03 06:52:29;;;;;;;8.35;2.70;;;;;;;18.37;44.82;100669.59;5095038;28;20044;-54
2022/09/03 06:54:57;;;;;;;14.68;2.40;;;;;;;18.42;44.95;100671.63;5096145;28;20557;-53
2022/09/03 06:57:23;;;;;;;6.70;2.10;;;;;;;18.53;43.98;100671.00;5094962;28;20051;-54
2022/09/03 06:59:50;;;;;;;14.13;2.50;;;;;;;18.60;44.34;100671.81;5095785;28;20048;-54
2022/09/03 07:02:17;;;;;;;6.25;2.25;;;;;;;18.66;44.10;100670.16;5096048;28;20094;-55
2022/09/03 07:04:44;;;;;;;7.72;2.25;;;;;;;18.75;44.16;100678.81;5095633;28;20048;-55
2022/09/03 07:07:12;;;;;;;9.82;2.50;;;;;;;18.82;43.37;100668.91;5095844;28;20370;-55
2022/09/03 07:09:39;;;;;;;7.38;2.15;;;;;;;18.93;43.34;100680.88;5087840;28;20052;-55
2022/09/03 07:12:09;;;;;;;6.07;2.13;;;;;;;19.01;43.04;100671.75;5095403;28;20082;-56
2022/09/03 07:14:36;;;;;;;6.10;2.13;;;;;;;18.99;43.22;100671.97;5095272;28;20486;-54
2022/09/03 07:17:03;;;;;;;5.90;2.20;;;;;;;19.12;43.38;100671.94;5095703;28;20040;-54
2022/09/03 07:19:30;;;;;;;8.38;2.35;;;;;;;19.21;43.42;100669.00;5095499;28;20378;-55
2022/09/03 07:21:57;;;;;;;6.63;2.00;;;;;;;19.25;42.67;100672.94;5095446;28;20485;-53
2022/09/03 07:24:24;;;;;;;6.43;2.30;;;;;;;19.26;42.98;100682.66;5057553;28;20040;-54
2022/09/03 07:26:50;;;;;;;7.05;2.00;;;;;;;19.28;42.69;100680.56;5095645;28;20048;-55
2022/09/03 07:29:18;;;;;;;6.35;1.98;;;;;;;19.28;42.82;100675.19;5095331;28;20067;-54
2022/09/03 07:31:45;;;;;;;6.07;2.00;;;;;;;19.37;42.98;100684.66;5094841;28;20069;-55
2022/09/03 07:34:13;;;;;;;6.85;2.17;;;;;;;19.44;42.33;100673.88;5094448;28;20512;-54
2022/09/03 07:36:45;;;;;;;5.25;2.17;;;;;;;19.51;42.78;100680.88;5095189;28;20053;-55
2022/09/03 07:39:13;;;;;;;6.60;2.03;;;;;;;19.53;43.40;100678.78;5095192;28;20117;-55
2022/09/03 07:41:44;;;;;;;6.90;2.10;;;;;;;19.58;42.39;100682.72;5094068;28;20040;-54
2022/09/03 07:44:14;;;;;;;6.40;2.17;;;;;;;19.73;41.83;100672.50;5095098;28;20056;-55
2022/09/03 07:46:42;;;;;;;8.40;2.40;;;;;;;19.69;42.06;100677.47;5075817;28;20044;-54
2022/09/03 07:49:09;;;;;;;5.70;2.10;;;;;;;19.66;42.18;100677.91;5074420;28;20528;-54
2022/09/03 07:51:37;;;;;;;5.88;2.20;;;;;;;19.66;42.14;100682.47;5074909;28;20049;-55
2022/09/03 07:54:08;;;;;;;8.98;2.25;;;;;;;19.60;42.82;100680.63;5073225;28;20052;-55
2022/09/03 07:56:37;;;;;;;9.82;2.20;;;;;;;19.72;42.28;100677.06;5073729;28;20131;-54
2022/09/03 07:59:05;;;;;;;5.65;2.08;;;;;;;19.85;41.98;100684.25;5074633;28;20044;-55
2022/09/03 08:01:33;;;;;;;6.93;2.20;;;;;;;19.95;41.55;100686.44;5074418;28;20095;-55
2022/09/03 08:04:01;;;;;;;7.80;1.95;;;;;;;19.85;41.78;100688.81;5072635;28;20071;-54
2022/09/03 08:06:30;;;;;;;7.38;2.20;;;;;;;19.96;41.83;100693.50;5086959;28;20044;-54
2022/09/03 08:09:01;;;;;;;7.78;2.35;;;;;;;20.10;41.61;100686.13;5094845;28;20051;-54
2022/09/03 08:11:32;;;;;;;10.75;2.30;;;;;;;20.22;41.26;100688.97;5093210;28;20123;-55
2022/09/03 08:14:01;;;;;;;7.35;2.30;;;;;;;20.25;41.70;100686.66;5094218;28;20063;-54
2022/09/03 08:16:30;;;;;;;7.95;2.15;;;;;;;20.41;40.95;100695.22;5094425;28;20048;-54
2022/09/03 08:18:57;;;;;;;12.70;2.63;;;;;;;20.36;41.47;100701.28;5093154;28;20054;-54
2022/09/03 08:21:26;;;;;;;6.55;2.28;;;;;;;20.44;41.06;100694.78;5094145;28;20046;-56
2022/09/03 08:24:01;;;;;;;8.85;2.20;;;;;;;20.53;40.86;100709.63;5048343;28;20040;-56
2022/09/03 08:26:30;;;;;;;6.15;2.30;;;;;;;20.55;40.58;100699.44;5092920;28;20046;-55
2022/09/03 08:28:58;;;;;;;8.88;2.50;;;;;;;20.56;41.06;100701.13;5094333;28;20375;-54
2022/09/03 08:31:26;;;;;;;10.77;2.50;;;;;;;20.57;40.71;100705.44;5093461;28;20048;-54
2022/09/03 08:33:55;;;;;;;8.27;2.30;;;;;;;20.66;41.17;100703.31;5094232;28;20097;-54
2022/09/03 08:36:28;;;;;;;6.65;2.58;;;;;;;20.70;41.08;100704.53;5093887;28;20074;-54
2022/09/03 08:39:02;;;;;;;5.90;2.25;;;;;;;20.75;40.88;100706.56;5092959;28;20043;-54
2022/09/03 08:44:38;;;;;;;9.10;2.35;;;;;;;20.90;40.38;100710.56;5152401;27;20215;-54
2022/09/03 08:47:13;;;;;;;7.95;2.45;;;;;;;20.96;40.49;100710.72;5131338;28;20447;-55
2022/09/03 08:50:19;;;;;;;9.65;2.20;;;;;;;20.89;40.46;100703.50;5131305;28;20438;-55
2022/09/03 08:52:52;;;;;;;9.70;2.58;;;;;;;20.97;40.41;100710.47;5131393;28;20039;-54
2022/09/03 08:55:57;;;;;;;7.20;2.55;;;;;;;21.07;40.06;100718.06;5128957;28;20058;-55
2022/09/03 08:58:26;;;;;;;7.47;2.50;;;;;;;21.07;40.18;100710.78;5119716;28;20051;-55
2022/09/03 09:01:03;;;;;;;7.28;2.35;;;;;;;21.14;40.25;100708.03;5115014;28;20035;-56
2022/09/03 09:03:56;;;;;;;8.98;2.40;;;;;;;21.20;40.66;100706.31;5103557;28;20308;-55
2022/09/03 09:06:48;;;;;;;5.45;2.08;;;;;;;21.29;40.24;100705.75;5118073;28;20409;-55
2022/09/03 09:09:34;;;;;;;7.18;2.35;;;;;;;21.39;40.41;100702.56;5131264;28;20500;-55
2022/09/03 09:15:11;;;;;;;6.97;2.40;;;;;;;22.10;39.28;100700.13;5110852;27;20376;-53
2022/09/03 09:17:54;;;;;;;7.53;2.60;;;;;;;22.37;38.56;100700.53;5109980;28;20048;-55
2022/09/03 09:20:49;;;;;;;6.40;2.42;;;;;;;22.53;38.72;100701.75;5110961;28;20035;-56
2022/09/03 09:23:25;;;;;;;5.72;2.40;;;;;;;22.83;38.68;100702.69;5072464;28;20040;-57
2022/09/03 09:25:56;;;;;;;11.25;2.60;;;;;;;22.97;38.42;100696.78;5110877;28;20074;-55
2022/09/03 09:28:29;;;;;;;5.85;2.30;;;;;;;23.57;37.84;100701.00;5110897;28;20047;-55
2022/09/03 09:30:56;;;;;;;15.55;2.40;;;;;;;24.46;36.00;100699.59;5109165;28;20044;-54
2022/09/03 09:33:24;;;;;;;15.65;2.70;;;;;;;25.58;33.96;100706.84;5111085;28;20048;-55
2022/09/03 09:35:51;;;;;;;9.95;2.60;;;;;;;26.35;32.96;100710.28;5110798;28;20055;-55
2022/09/03 09:38:30;;;;;;;8.00;2.65;;;;;;;26.79;31.53;100710.88;5110943;28;20127;-59
2022/09/03 09:41:12;;;;;;;5.28;2.40;;;;;;;26.68;31.33;100716.53;5100550;28;20045;-59
2022/09/03 09:43:40;;;;;;;7.63;2.88;;;;;;;26.74;31.49;100715.47;5102556;28;20094;-57
2022/09/03 09:46:24;;;;;;;9.02;2.80;;;;;;;27.42;31.09;100717.47;5109117;28;20122;-55
2022/09/03 09:48:55;;;;;;;13.80;2.80;;;;;;;27.64;30.34;100722.72;5090406;28;20094;-54
2022/09/03 09:51:25;;;;;;;7.88;2.72;;;;;;;27.65;30.14;100721.63;5090169;28;20052;-57
2022/09/03 09:54:13;;;;;;;9.20;2.97;;;;;;;26.88;31.38;100713.13;5096902;28;20044;-55
2022/09/03 09:56:41;;;;;;;11.55;2.92;;;;;;;26.59;31.90;100718.88;5107012;28;20290;-55
2022/09/03 09:59:10;;;;;;;8.75;3.00;;;;;;;26.58;32.51;100714.53;5108660;28;20044;-55
2022/09/03 10:01:39;;;;;;;18.08;3.03;;;;;;;26.27;32.74;100716.19;5105934;28;20039;-53
2022/09/03 10:04:12;;;;;;;8.65;2.83;;;;;;;25.64;34.08;100717.47;5104811;28;20044;-57
2022/09/03 10:06:55;;;;;;;17.60;3.40;;;;;;;25.45;37.31;100725.16;5088376;28;20371;-57
2022/09/03 10:09:26;;;;;;;8.48;3.08;;;;;;;25.48;35.60;100726.53;5091710;28;20147;-62
2022/09/03 10:14:46;;;;;;;16.60;3.33;;;;;;;25.54;35.16;100728.25;5090862;28;20345;-54
2022/09/03 10:17:53;;;;;;;8.43;3.35;;;;;;;24.89;36.30;100724.41;5090344;28;20115;-54
2022/09/03 10:20:30;;;;;;;10.98;3.15;;;;;;;24.32;37.98;100723.50;5090299;28;20052;-54
2022/09/03 10:28:16;;;;;;;10.63;4.03;;;;;;;23.83;39.18;100731.34;5070767;28;20854;-54
2022/09/03 10:30:57;;;;;;;13.00;3.60;;;;;;;23.79;39.69;100721.19;5070601;28;20086;-54
2022/09/03 10:33:35;;;;;;;10.50;3.10;;;;;;;23.69;39.87;100722.63;5070161;28;20060;-54
2022/09/03 10:36:18;;;;;;;14.57;3.40;;;;;;;23.62;40.60;100727.38;5070651;28;20098;-54
2022/09/03 10:38:51;;;;;;;11.05;3.65;;;;;;;23.30;40.65;100727.00;5070212;28;20049;-54
2022/09/03 10:41:46;;;;;;;7.97;3.22;;;;;;;23.46;40.41;100728.94;5070372;28;20045;-54
2022/09/03 10:47:06;;;;;;;13.32;3.50;;;;;;;23.98;39.56;100738.91;5111240;27;20143;-54
2022/09/03 10:50:00;;;;;;;8.80;3.35;;;;;;;23.72;40.69;100738.41;5111130;28;20552;-56
2022/09/03 10:52:40;;;;;;;12.48;4.00;;;;;;;23.79;40.25;100740.13;5111110;28;20131;-55
2022/09/03 10:55:38;;;;;;;8.45;3.17;;;;;;;23.78;40.07;100739.31;5106878;28;20068;-54
2022/09/03 11:01:17;;;;;;;11.85;3.55;;;;;;;23.21;41.11;100740.06;5108797;27;20355;-54
2022/09/03 11:03:52;;;;;;;14.50;3.75;;;;;;;23.44;41.83;100736.47;5071085;28;20457;-53
2022/09/03 11:06:42;;;;;;;11.48;3.50;;;;;;;23.47;41.82;100736.00;5076853;28;20044;-56
2022/09/03 11:09:23;;;;;;;13.48;4.72;;;;;;;23.52;41.81;100740.69;5088533;28;20470;-54
2022/09/03 11:11:56;;;;;;;9.90;3.72;;;;;;;24.04;40.81;100729.78;5089503;28;20040;-54
2022/09/03 11:14:34;;;;;;;8.30;3.58;;;;;;;24.76;39.46;100736.44;5090396;28;20375;-54
2022/09/03 11:17:08;;;;;;;9.57;3.90;;;;;;;25.41;38.11;100732.19;5090373;28;20548;-54
2022/09/03 11:19:45;;;;;;;8.63;3.80;;;;;;;25.44;37.82;100733.56;5090248;28;20044;-55
2022/09/03 11:22:16;;;;;;;9.93;3.60;;;;;;;25.75;36.83;100729.28;5074019;28;20056;-56
2022/09/03 11:24:57;;;;;;;12.02;3.70;;;;;;;26.09;36.92;100723.66;5072751;28;20072;-55
2022/09/03 11:27:52;;;;;;;8.67;3.67;;;;;;;26.36;36.12;100723.63;5090366;28;20509;-56
2022/09/03 11:30:27;;;;;;;12.98;3.88;;;;;;;26.51;35.24;100719.38;5071779;28;20040;-56
2022/09/03 11:32:59;;;;;;;11.77;3.47;;;;;;;26.51;34.72;100720.19;5088911;28;20044;-55
2022/09/03 11:35:36;;;;;;;10.10;3.60;;;;;;;26.65;34.86;100725.22;5089687;28;20142;-55
2022/09/03 11:38:20;;;;;;;14.60;3.90;;;;;;;26.92;34.43;100728.63;5073055;28;20053;-55
2022/09/03 11:41:00;;;;;;;7.90;3.38;;;;;;;26.73;34.98;100725.53;5069647;28;20441;-56
2022/09/03 11:43:30;;;;;;;10.15;3.60;;;;;;;26.11;35.85;100721.50;5052270;28;20053;-56
2022/09/03 11:46:22;;;;;;;8.93;3.33;;;;;;;25.92;36.09;100720.19;5069737;28;20056;-55
2022/09/03 11:48:51;;;;;;;9.23;3.28;;;;;;;25.66;36.75;100715.31;5074366;28;20123;-56
2022/09/03 11:51:36;;;;;;;8.02;3.60;;;;;;;25.68;36.93;100710.44;5069380;28;20107;-55
2022/09/03 11:54:24;;;;;;;9.68;3.50;;;;;;;26.22;36.19;100709.63;5069383;28;20045;-54
2022/09/03 11:57:12;;;;;;;9.93;3.65;;;;;;;26.75;35.17;100701.59;5084665;28;20049;-54
2022/09/03 11:59:41;;;;;;;8.07;3.33;;;;;;;26.61;35.00;100704.00;5069191;28;20057;-55
2022/09/03 12:02:32;;;;;;;12.18;3.47;;;;;;;26.76;35.39;100703.25;5068622;28;20040;-56
2022/09/03 12:05:15;;;;;;;11.05;3.90;;;;;;;26.91;35.25;100701.72;5069046;28;20444;-55
2022/09/03 12:08:17;;;;;;;8.82;3.88;;;;;;;26.74;35.68;100702.72;5067621;28;20394;-56
2022/09/03 12:10:52;;;;;;;9.40;4.00;;;;;;;27.12;34.77;100699.88;5065144;28;20041;-55
2022/09/03 12:13:35;;;;;;;9.63;3.60;;;;;;;27.14;34.99;100690.38;5055805;28;20048;-55
2022/09/03 12:16:31;;;;;;;9.73;3.83;;;;;;;27.32;34.66;100694.56;5056236;28;20098;-55
2022/09/03 12:19:10;;;;;;;8.00;3.83;;;;;;;27.12;34.83;100684.41;5055914;28;20049;-56
2022/09/03 12:21:39;;;;;;;12.13;3.78;;;;;;;27.13;35.28;100688.75;5056094;28;20049;-55
2022/09/03 12:24:11;;;;;;;11.38;3.88;;;;;;;27.12;34.90;100680.84;5018452;28;20080;-55
2022/09/03 12:26:40;;;;;;;9.70;3.60;;;;;;;27.10;35.33;100683.81;5055681;28;20049;-57
2022/09/03 12:29:21;;;;;;;10.35;3.55;;;;;;;26.97;35.34;100676.16;5055714;28;20049;-56